createdAt,value
2019-01-06T00:00:31.959Z,4.56
2019-01-06T00:01:31.862Z,4.57
2019-01-06T00:02:31.869Z,4.54
2019-01-06T00:03:31.963Z,4.56
2019-01-06T00:04:31.780Z,4.56
2019-01-06T00:05:32.022Z,4.56
2019-01-06T00:06:31.786Z,4.57
2019-01-06T00:07:31.870Z,4.54
2019-01-06T00:08:31.771Z,4.54
2019-01-06T00:09:32.312Z,4.56
2019-01-06T00:10:32.189Z,4.56
2019-01-06T00:11:31.891Z,4.55
2019-01-06T00:12:32.231Z,4.54
2019-01-06T00:13:31.834Z,4.55
2019-01-06T00:14:31.786Z,4.53
2019-01-06T00:15:31.771Z,4.53
2019-01-06T00:16:31.942Z,4.56
2019-01-06T00:17:31.932Z,4.54
2019-01-06T00:18:32.004Z,4.55
2019-01-06T00:19:31.774Z,4.54
2019-01-06T00:20:31.844Z,4.56
2019-01-06T00:21:31.901Z,4.53
2019-01-06T00:22:31.718Z,4.56
2019-01-06T00:23:31.815Z,4.53
2019-01-06T00:24:31.911Z,4.55
2019-01-06T00:25:31.798Z,4.53
2019-01-06T00:26:32.163Z,4.55
2019-01-06T00:27:31.743Z,4.53
2019-01-06T00:28:31.734Z,4.56
2019-01-06T00:29:32.561Z,4.53
2019-01-06T00:30:32.158Z,4.53
2019-01-06T00:31:31.824Z,4.55
2019-01-06T00:32:31.828Z,4.53
2019-01-06T00:33:32.285Z,4.54
2019-01-06T00:34:32.050Z,4.53
2019-01-06T00:35:31.991Z,4.53
2019-01-06T00:36:32.220Z,4.53
2019-01-06T00:37:31.838Z,4.55
2019-01-06T00:38:32.472Z,4.53
2019-01-06T00:39:32.355Z,4.56
2019-01-06T00:40:31.965Z,4.53
2019-01-06T00:41:31.999Z,4.54
2019-01-06T00:42:31.805Z,4.54
2019-01-06T00:43:32.034Z,4.56
2019-01-06T00:44:31.755Z,4.54
2019-01-06T00:45:32.049Z,4.52
2019-01-06T00:46:31.729Z,4.53
2019-01-06T00:47:32.302Z,4.52
2019-01-06T00:48:32.121Z,4.52
2019-01-06T00:49:31.919Z,4.52
2019-01-06T00:50:31.685Z,4.53
2019-01-06T00:51:31.729Z,4.52
2019-01-06T00:52:31.889Z,4.52
2019-01-06T00:53:31.724Z,4.53
2019-01-06T00:54:31.888Z,4.52
2019-01-06T00:55:31.823Z,4.52
2019-01-06T00:56:31.689Z,4.53
2019-01-06T00:57:32.076Z,4.53
2019-01-06T00:58:31.661Z,4.55
2019-01-06T00:59:31.737Z,4.53
2019-01-06T01:00:31.717Z,4.54
2019-01-06T01:01:31.692Z,4.54
2019-01-06T01:02:32.518Z,4.52
2019-01-06T01:03:31.729Z,4.56
2019-01-06T01:04:31.751Z,4.53
2019-01-06T01:05:31.748Z,4.54
2019-01-06T01:06:31.664Z,4.54
2019-01-06T01:07:32.170Z,4.53
2019-01-06T01:08:31.919Z,4.55
2019-01-06T01:09:31.838Z,4.53
2019-01-06T01:10:31.725Z,4.53
2019-01-06T01:11:31.693Z,4.52
2019-01-06T01:12:31.633Z,4.53
2019-01-06T01:13:31.755Z,4.54
2019-01-06T01:14:32.052Z,4.53
2019-01-06T01:15:31.648Z,4.53
2019-01-06T01:16:31.640Z,4.53
2019-01-06T01:17:31.783Z,4.52
2019-01-06T01:18:31.691Z,4.51
2019-01-06T01:19:31.642Z,4.53
2019-01-06T01:20:31.644Z,4.53
2019-01-06T01:21:31.664Z,4.53
2019-01-06T01:22:31.732Z,4.53
2019-01-06T01:23:31.738Z,4.54
2019-01-06T01:24:31.916Z,4.53
2019-01-06T01:25:31.768Z,4.53
2019-01-06T01:26:31.724Z,4.53
2019-01-06T01:27:31.762Z,4.54
2019-01-06T01:28:31.857Z,4.52
2019-01-06T01:29:31.820Z,4.52
2019-01-06T01:30:31.687Z,4.53
2019-01-06T01:31:31.814Z,4.52
2019-01-06T01:32:31.770Z,4.53
2019-01-06T01:33:31.640Z,4.53
2019-01-06T01:34:31.727Z,4.52
2019-01-06T01:35:31.616Z,4.52
2019-01-06T01:36:31.718Z,4.52
2019-01-06T01:37:32.027Z,4.52
2019-01-06T01:38:31.711Z,4.52
2019-01-06T01:39:31.612Z,4.52
2019-01-06T01:40:32.555Z,4.54
2019-01-06T01:41:32.169Z,4.52
2019-01-06T01:42:31.826Z,4.52
2019-01-06T01:43:31.663Z,4.52
2019-01-06T01:44:31.694Z,4.54
2019-01-06T01:45:31.636Z,4.52
2019-01-06T01:46:31.765Z,4.52
2019-01-06T01:47:31.735Z,4.52
2019-01-06T01:48:31.658Z,4.52
2019-01-06T01:49:31.784Z,4.52
2019-01-06T01:50:31.859Z,4.52
2019-01-06T01:51:31.840Z,4.52
2019-01-06T01:52:32.051Z,4.5
2019-01-06T01:53:31.596Z,4.52
2019-01-06T01:54:31.787Z,4.51
2019-01-06T01:55:31.620Z,4.52
2019-01-06T01:56:31.990Z,4.51
2019-01-06T01:57:31.670Z,4.52
2019-01-06T01:58:31.960Z,4.5
2019-01-06T01:59:31.703Z,4.54
2019-01-06T02:00:31.880Z,4.51
2019-01-06T02:01:31.661Z,4.52
2019-01-06T02:02:31.973Z,4.48
2019-01-06T02:03:32.125Z,4.51
2019-01-06T02:04:31.613Z,4.51
2019-01-06T02:05:31.790Z,4.51
2019-01-06T02:06:31.737Z,4.49
2019-01-06T02:07:31.835Z,4.51
2019-01-06T02:08:31.708Z,4.48
2019-01-06T02:09:31.666Z,4.48
2019-01-06T02:10:31.558Z,4.51
2019-01-06T02:11:31.791Z,4.47
2019-01-06T02:12:31.761Z,4.49
2019-01-06T02:13:31.666Z,4.48
2019-01-06T02:14:31.896Z,4.48
2019-01-06T02:15:31.614Z,4.47
2019-01-06T02:16:31.841Z,4.47
2019-01-06T02:17:31.593Z,4.47
2019-01-06T02:18:31.983Z,4.47
2019-01-06T02:19:31.583Z,4.46
2019-01-06T02:20:32.422Z,4.46
2019-01-06T02:21:31.632Z,4.46
2019-01-06T02:22:31.595Z,4.45
2019-01-06T02:23:31.936Z,4.45
2019-01-06T02:24:32.296Z,4.45
2019-01-06T02:25:31.708Z,4.44
2019-01-06T02:26:32.117Z,4.45
2019-01-06T02:27:31.575Z,4.45
2019-01-06T02:28:31.711Z,4.44
2019-01-06T02:29:32.388Z,4.44
2019-01-06T02:30:31.694Z,4.42
2019-01-06T02:31:31.696Z,4.42
2019-01-06T02:32:31.672Z,4.42
2019-01-06T02:33:31.573Z,4.44
2019-01-06T02:34:32.088Z,4.42
2019-01-06T02:35:31.965Z,4.44
2019-01-06T02:36:31.745Z,4.44
2019-01-06T02:37:31.649Z,4.44
2019-01-06T02:38:31.571Z,4.4
2019-01-06T02:39:31.570Z,4.43
2019-01-06T02:40:31.562Z,4.41
2019-01-06T02:41:31.534Z,4.42
2019-01-06T02:42:32.184Z,4.4
2019-01-06T02:43:31.632Z,4.4
2019-01-06T02:44:31.826Z,4.4
2019-01-06T02:45:32.451Z,4.43
2019-01-06T02:46:31.671Z,4.4
2019-01-06T02:47:31.765Z,4.39
2019-01-06T02:48:31.910Z,4.4
2019-01-06T02:49:31.570Z,4.41
2019-01-06T02:50:31.745Z,4.4
2019-01-06T02:51:31.638Z,4.39
2019-01-06T02:52:31.740Z,4.39
2019-01-06T02:53:31.603Z,4.39
2019-01-06T02:54:31.520Z,4.39
2019-01-06T02:55:31.646Z,4.38
2019-01-06T02:56:31.759Z,4.38
2019-01-06T02:57:32.247Z,4.38
2019-01-06T02:58:31.574Z,4.36
2019-01-06T02:59:31.539Z,4.39
2019-01-06T03:00:31.597Z,4.38
2019-01-06T03:01:31.923Z,4.36
2019-01-06T03:02:31.599Z,4.39
2019-01-06T03:03:31.602Z,4.36
2019-01-06T03:04:31.539Z,4.38
2019-01-06T03:05:31.632Z,4.36
2019-01-06T03:06:31.540Z,4.38
2019-01-06T03:07:31.618Z,4.38
2019-01-06T03:08:31.554Z,4.36
2019-01-06T03:09:31.763Z,4.38
2019-01-06T03:10:31.549Z,4.35
2019-01-06T03:11:31.689Z,4.37
2019-01-06T03:12:31.515Z,4.35
2019-01-06T03:13:31.646Z,4.37
2019-01-06T03:14:31.526Z,4.35
2019-01-06T03:15:31.528Z,4.36
2019-01-06T03:16:31.529Z,4.36
2019-01-06T03:17:31.581Z,4.37
2019-01-06T03:18:31.527Z,4.35
2019-01-06T03:19:31.631Z,4.35
2019-01-06T03:20:31.562Z,4.35
2019-01-06T03:21:31.747Z,4.37
2019-01-06T03:22:31.514Z,4.38
2019-01-06T03:23:31.728Z,4.37
2019-01-06T03:24:31.750Z,4.35
2019-01-06T03:25:31.602Z,4.37
2019-01-06T03:26:31.872Z,4.35
2019-01-06T03:27:31.675Z,4.35
2019-01-06T03:28:31.609Z,4.35
2019-01-06T03:29:31.835Z,4.34
2019-01-06T03:30:31.762Z,4.34
2019-01-06T03:31:31.605Z,4.34
2019-01-06T03:32:32.241Z,4.35
2019-01-06T03:33:31.492Z,4.33
2019-01-06T03:34:31.750Z,4.34
2019-01-06T03:35:31.799Z,4.33
2019-01-06T03:36:31.637Z,4.34
2019-01-06T03:37:32.084Z,4.35
2019-01-06T03:38:31.693Z,4.34
2019-01-06T03:39:31.910Z,4.34
2019-01-06T03:40:31.710Z,4.37
2019-01-06T03:41:31.787Z,4.35
2019-01-06T03:42:31.658Z,4.37
2019-01-06T03:43:31.584Z,4.39
2019-01-06T03:44:31.704Z,4.4
2019-01-06T03:45:31.727Z,4.39
2019-01-06T03:46:31.797Z,4.39
2019-01-06T03:47:31.525Z,4.4
2019-01-06T03:48:31.810Z,4.41
2019-01-06T03:49:31.459Z,4.44
2019-01-06T03:50:31.476Z,4.42
2019-01-06T03:51:31.828Z,4.42
2019-01-06T03:52:31.557Z,4.45
2019-01-06T03:53:31.842Z,4.45
2019-01-06T03:54:31.526Z,4.45
2019-01-06T03:55:31.634Z,4.46
2019-01-06T03:56:32.346Z,4.47
2019-01-06T03:57:31.730Z,4.49
2019-01-06T03:58:31.869Z,4.47
2019-01-06T03:59:31.727Z,4.47
2019-01-06T04:00:31.718Z,4.51
2019-01-06T04:01:31.553Z,4.52
2019-01-06T04:02:31.584Z,4.53
2019-01-06T04:03:31.643Z,4.55
2019-01-06T04:04:31.539Z,4.53
2019-01-06T04:05:31.621Z,4.54
2019-01-06T04:06:31.586Z,4.57
2019-01-06T04:07:31.433Z,4.58
2019-01-06T04:08:31.475Z,4.59
2019-01-06T04:09:31.902Z,4.58
2019-01-06T04:10:32.298Z,4.59
2019-01-06T04:11:31.834Z,4.6
2019-01-06T04:12:31.705Z,4.62
2019-01-06T04:13:31.765Z,4.6
2019-01-06T04:14:31.684Z,4.6
2019-01-06T04:15:32.357Z,4.61
2019-01-06T04:16:31.571Z,4.6
2019-01-06T04:17:31.688Z,4.62
2019-01-06T04:18:31.561Z,4.63
2019-01-06T04:19:31.535Z,4.61
2019-01-06T04:20:31.707Z,4.63
2019-01-06T04:21:31.561Z,4.61
2019-01-06T04:22:31.787Z,4.63
2019-01-06T04:23:31.424Z,4.61
2019-01-06T04:24:31.496Z,4.61
2019-01-06T04:25:31.590Z,4.6
2019-01-06T04:26:31.547Z,4.63
2019-01-06T04:27:31.397Z,4.63
2019-01-06T04:28:31.713Z,4.63
2019-01-06T04:29:31.450Z,4.63
2019-01-06T04:30:31.521Z,4.6
2019-01-06T04:31:31.810Z,4.63
2019-01-06T04:32:31.975Z,4.59
2019-01-06T04:33:31.747Z,4.62
2019-01-06T04:34:31.776Z,4.6
2019-01-06T04:35:31.775Z,4.6
2019-01-06T04:36:31.419Z,4.62
2019-01-06T04:37:31.524Z,4.64
2019-01-06T04:38:31.681Z,4.63
2019-01-06T04:39:31.455Z,4.64
2019-01-06T04:40:31.427Z,4.62
2019-01-06T04:41:31.395Z,4.63
2019-01-06T04:42:31.524Z,4.63
2019-01-06T04:43:31.412Z,4.61
2019-01-06T04:44:31.470Z,4.63
2019-01-06T04:45:31.478Z,4.6
2019-01-06T04:46:31.532Z,4.63
2019-01-06T04:47:31.642Z,4.62
2019-01-06T04:48:31.516Z,4.62
2019-01-06T04:49:31.557Z,4.62
2019-01-06T04:50:31.360Z,4.63
2019-01-06T04:51:31.490Z,4.6
2019-01-06T04:52:33.422Z,4.6
2019-01-06T04:53:31.576Z,4.61
2019-01-06T04:54:31.489Z,4.6
2019-01-06T04:55:31.468Z,4.59
2019-01-06T04:56:31.369Z,4.62
2019-01-06T04:57:31.380Z,4.6
2019-01-06T04:58:31.472Z,4.62
2019-01-06T04:59:31.810Z,4.6
2019-01-06T05:00:31.447Z,4.6
2019-01-06T05:01:32.287Z,4.62
2019-01-06T05:02:31.472Z,4.59
2019-01-06T05:03:31.794Z,4.62
2019-01-06T05:04:31.821Z,4.59
2019-01-06T05:05:31.389Z,4.59
2019-01-06T05:06:31.565Z,4.59
2019-01-06T05:07:31.455Z,4.59
2019-01-06T05:08:31.520Z,4.59
2019-01-06T05:09:31.597Z,4.61
2019-01-06T05:10:31.540Z,4.59
2019-01-06T05:11:31.449Z,4.59
2019-01-06T05:12:31.798Z,4.57
2019-01-06T05:13:31.631Z,4.58
2019-01-06T05:14:31.506Z,4.59
2019-01-06T05:15:31.596Z,4.57
2019-01-06T05:16:32.178Z,4.58
2019-01-06T05:17:31.347Z,4.59
2019-01-06T05:18:31.514Z,4.58
2019-01-06T05:19:31.600Z,4.58
2019-01-06T05:20:31.426Z,4.55
2019-01-06T05:21:31.550Z,4.57
2019-01-06T05:22:31.565Z,4.57
2019-01-06T05:23:31.491Z,4.58
2019-01-06T05:24:31.439Z,4.57
2019-01-06T05:25:31.604Z,4.55
2019-01-06T05:26:32.034Z,4.58
2019-01-06T05:27:31.830Z,4.57
2019-01-06T05:28:31.828Z,4.57
2019-01-06T05:29:31.740Z,4.57
2019-01-06T05:30:31.557Z,4.57
2019-01-06T05:31:31.528Z,4.56
2019-01-06T05:32:31.834Z,4.56
2019-01-06T05:33:31.336Z,4.58
2019-01-06T05:34:31.539Z,4.58
2019-01-06T05:35:31.623Z,4.58
2019-01-06T05:36:32.155Z,4.58
2019-01-06T05:37:31.475Z,4.59
2019-01-06T05:38:31.810Z,4.58
2019-01-06T05:39:31.575Z,4.59
2019-01-06T05:40:31.433Z,4.59
2019-01-06T05:41:31.689Z,4.6
2019-01-06T05:42:31.580Z,4.59
2019-01-06T05:43:31.720Z,4.62
2019-01-06T05:44:31.441Z,4.6
2019-01-06T05:45:31.582Z,4.58
2019-01-06T05:46:31.505Z,4.59
2019-01-06T05:47:31.351Z,4.58
2019-01-06T05:48:31.619Z,4.58
2019-01-06T05:49:31.392Z,4.58
2019-01-06T05:50:31.303Z,4.59
2019-01-06T05:51:31.471Z,4.59
2019-01-06T05:52:31.958Z,4.58
2019-01-06T05:53:31.353Z,4.58
2019-01-06T05:54:31.356Z,4.58
2019-01-06T05:55:31.308Z,4.58
2019-01-06T05:56:31.471Z,4.57
2019-01-06T05:57:31.339Z,4.57
2019-01-06T05:58:31.536Z,4.58
2019-01-06T05:59:31.304Z,4.55
2019-01-06T06:00:31.363Z,4.57
2019-01-06T06:01:31.318Z,4.56
2019-01-06T06:02:31.334Z,4.55
2019-01-06T06:03:31.432Z,4.54
2019-01-06T06:04:31.421Z,4.56
2019-01-06T06:05:31.408Z,4.53
2019-01-06T06:06:31.545Z,4.54
2019-01-06T06:07:31.412Z,4.54
2019-01-06T06:08:31.367Z,4.56
2019-01-06T06:09:31.353Z,4.54
2019-01-06T06:10:31.480Z,4.54
2019-01-06T06:11:31.305Z,4.55
2019-01-06T06:12:31.247Z,4.54
2019-01-06T06:13:31.360Z,4.54
2019-01-06T06:14:31.373Z,4.53
2019-01-06T06:15:31.326Z,4.54
2019-01-06T06:16:31.483Z,4.54
2019-01-06T06:17:31.307Z,4.58
2019-01-06T06:18:31.477Z,4.58
2019-01-06T06:19:31.233Z,4.57
2019-01-06T06:20:31.371Z,4.55
2019-01-06T06:21:31.271Z,4.57
2019-01-06T06:22:31.291Z,4.58
2019-01-06T06:23:31.307Z,4.58
2019-01-06T06:24:31.305Z,4.57
2019-01-06T06:25:31.276Z,4.58
2019-01-06T06:26:31.282Z,4.58
2019-01-06T06:27:31.329Z,4.58
2019-01-06T06:28:31.366Z,4.58
2019-01-06T06:29:31.321Z,4.58
2019-01-06T06:30:32.948Z,4.58
2019-01-06T06:31:31.333Z,4.58
2019-01-06T06:32:31.578Z,4.56
2019-01-06T06:33:31.293Z,4.58
2019-01-06T06:34:31.255Z,4.56
2019-01-06T06:35:31.245Z,4.58
2019-01-06T06:36:31.263Z,4.58
2019-01-06T06:37:31.359Z,4.58
2019-01-06T06:38:31.247Z,4.57
2019-01-06T06:39:31.344Z,4.58
2019-01-06T06:40:31.380Z,4.58
2019-01-06T06:41:31.455Z,4.57
2019-01-06T06:42:31.244Z,4.58
2019-01-06T06:43:31.503Z,4.56
2019-01-06T06:44:31.613Z,4.58
2019-01-06T06:45:31.474Z,4.58
2019-01-06T06:46:31.217Z,4.58
2019-01-06T06:47:31.960Z,4.58
2019-01-06T06:48:31.407Z,4.58
2019-01-06T06:49:31.288Z,4.58
2019-01-06T06:50:31.278Z,4.58
2019-01-06T06:51:31.356Z,4.57
2019-01-06T06:52:31.332Z,4.59
2019-01-06T06:53:31.711Z,4.58
2019-01-06T06:54:31.483Z,4.57
2019-01-06T06:55:31.347Z,4.56
2019-01-06T06:56:31.253Z,4.57
2019-01-06T06:57:31.535Z,4.57
2019-01-06T06:58:31.371Z,4.57
2019-01-06T06:59:31.297Z,4.57
2019-01-06T07:00:31.422Z,4.54
2019-01-06T07:01:31.427Z,4.57
2019-01-06T07:02:31.299Z,4.54
2019-01-06T07:03:31.440Z,4.56
2019-01-06T07:04:31.414Z,4.56
2019-01-06T07:05:31.218Z,4.56
2019-01-06T07:06:31.338Z,4.56
2019-01-06T07:07:31.229Z,4.56
2019-01-06T07:08:31.441Z,4.55
2019-01-06T07:09:31.397Z,4.56
2019-01-06T07:10:31.279Z,4.55
2019-01-06T07:11:31.702Z,4.56
2019-01-06T07:12:31.371Z,4.54
2019-01-06T07:13:31.376Z,4.54
2019-01-06T07:14:31.347Z,4.53
2019-01-06T07:15:31.333Z,4.56
2019-01-06T07:16:31.424Z,4.53
2019-01-06T07:17:32.104Z,4.53
2019-01-06T07:18:31.400Z,4.53
2019-01-06T07:19:31.341Z,4.56
2019-01-06T07:20:31.234Z,4.53
2019-01-06T07:21:31.442Z,4.55
2019-01-06T07:22:31.465Z,4.54
2019-01-06T07:23:31.736Z,4.54
2019-01-06T07:24:31.583Z,4.55
2019-01-06T07:25:31.246Z,4.53
2019-01-06T07:26:31.247Z,4.54
2019-01-06T07:27:31.348Z,4.52
2019-01-06T07:28:32.019Z,4.52
2019-01-06T07:29:31.251Z,4.52
2019-01-06T07:30:31.362Z,4.52
2019-01-06T07:31:31.189Z,4.52
2019-01-06T07:32:31.215Z,4.52
2019-01-06T07:33:31.324Z,4.52
2019-01-06T07:34:31.344Z,4.51
2019-01-06T07:35:31.486Z,4.5
2019-01-06T07:36:31.193Z,4.5
2019-01-06T07:37:31.452Z,4.5
2019-01-06T07:38:31.355Z,4.48
2019-01-06T07:39:31.510Z,4.51
2019-01-06T07:40:31.336Z,4.51
2019-01-06T07:41:31.295Z,4.5
2019-01-06T07:42:31.346Z,4.47
2019-01-06T07:43:31.148Z,4.5
2019-01-06T07:44:32.013Z,4.47
2019-01-06T07:45:31.199Z,4.47
2019-01-06T07:46:31.307Z,4.47
2019-01-06T07:47:31.364Z,4.47
2019-01-06T07:48:31.342Z,4.47
2019-01-06T07:49:31.141Z,4.47
2019-01-06T07:50:31.371Z,4.46
2019-01-06T07:51:32.079Z,4.46
2019-01-06T07:52:31.334Z,4.46
2019-01-06T07:53:31.137Z,4.46
2019-01-06T07:54:31.604Z,4.46
2019-01-06T07:55:31.217Z,4.48
2019-01-06T07:56:31.224Z,4.47
2019-01-06T07:57:31.240Z,4.46
2019-01-06T07:58:31.309Z,4.46
2019-01-06T07:59:31.260Z,4.46
2019-01-06T08:00:31.554Z,4.46
2019-01-06T08:01:31.195Z,4.46
2019-01-06T08:02:31.561Z,4.47
2019-01-06T08:03:31.174Z,4.47
2019-01-06T08:04:31.889Z,4.47
2019-01-06T08:05:31.333Z,4.46
2019-01-06T08:06:31.176Z,4.47
2019-01-06T08:07:31.200Z,4.47
2019-01-06T08:08:31.238Z,4.49
2019-01-06T08:09:31.284Z,4.49
2019-01-06T08:10:31.286Z,4.47
2019-01-06T08:11:31.265Z,4.49
2019-01-06T08:12:31.213Z,4.5
2019-01-06T08:13:31.250Z,4.47
2019-01-06T08:14:31.279Z,4.48
2019-01-06T08:15:31.164Z,4.47
2019-01-06T08:16:31.253Z,4.47
2019-01-06T08:17:31.229Z,4.48
2019-01-06T08:18:31.389Z,4.47
2019-01-06T08:19:31.225Z,4.5
2019-01-06T08:20:33.280Z,4.5
2019-01-06T08:21:31.186Z,4.48
2019-01-06T08:22:31.572Z,4.49
2019-01-06T08:23:31.159Z,4.5
2019-01-06T08:24:31.571Z,4.47
2019-01-06T08:25:31.728Z,4.49
2019-01-06T08:26:31.297Z,4.48
2019-01-06T08:27:31.879Z,4.5
2019-01-06T08:28:31.374Z,4.5
2019-01-06T08:29:31.712Z,4.48
2019-01-06T08:30:31.365Z,4.47
2019-01-06T08:31:31.198Z,4.51
2019-01-06T08:32:31.216Z,4.5
2019-01-06T08:33:31.363Z,4.5
2019-01-06T08:34:31.281Z,4.5
2019-01-06T08:35:31.082Z,4.48
2019-01-06T08:36:31.291Z,4.48
2019-01-06T08:37:31.983Z,4.48
2019-01-06T08:38:31.193Z,4.5
2019-01-06T08:39:31.215Z,4.48
2019-01-06T08:40:31.423Z,4.5
2019-01-06T08:41:31.331Z,4.48
2019-01-06T08:42:31.234Z,4.47
2019-01-06T08:43:31.211Z,4.48
2019-01-06T08:44:31.198Z,4.5
2019-01-06T08:45:31.256Z,4.47
2019-01-06T08:46:31.330Z,4.46
2019-01-06T08:47:31.116Z,4.5
2019-01-06T08:48:31.916Z,4.47
2019-01-06T08:49:31.176Z,4.47
2019-01-06T08:50:31.394Z,4.47
2019-01-06T08:51:31.280Z,4.49
2019-01-06T08:52:31.300Z,4.49
2019-01-06T08:53:31.259Z,4.48
2019-01-06T08:54:31.467Z,4.48
2019-01-06T08:55:31.513Z,4.5
2019-01-06T08:56:32.851Z,4.47
2019-01-06T08:57:31.162Z,4.5
2019-01-06T08:58:31.220Z,4.48
2019-01-06T08:59:31.321Z,4.48
2019-01-06T09:00:31.295Z,4.5
2019-01-06T09:01:31.387Z,4.51
2019-01-06T09:02:31.158Z,4.48
2019-01-06T09:03:31.485Z,4.5
2019-01-06T09:04:31.893Z,4.48
2019-01-06T09:05:31.318Z,4.51
2019-01-06T09:06:31.266Z,4.48
2019-01-06T09:07:31.082Z,4.51
2019-01-06T09:08:31.600Z,4.51
2019-01-06T09:09:31.274Z,4.51
2019-01-06T09:10:31.516Z,4.5
2019-01-06T09:11:31.325Z,4.51
2019-01-06T09:12:31.369Z,4.49
2019-01-06T09:13:31.333Z,4.51
2019-01-06T09:14:31.286Z,4.49
2019-01-06T09:15:31.389Z,4.49
2019-01-06T09:16:31.177Z,4.51
2019-01-06T09:17:31.334Z,4.5
2019-01-06T09:18:31.070Z,4.52
2019-01-06T09:19:31.409Z,4.5
2019-01-06T09:20:31.136Z,4.5
2019-01-06T09:21:31.160Z,4.52
2019-01-06T09:22:31.103Z,4.52
2019-01-06T09:23:31.348Z,4.51
2019-01-06T09:24:31.255Z,4.53
2019-01-06T09:25:31.326Z,4.52
2019-01-06T09:26:31.180Z,4.51
2019-01-06T09:27:31.337Z,4.53
2019-01-06T09:28:31.507Z,4.52
2019-01-06T09:29:32.779Z,4.53
2019-01-06T09:30:31.485Z,4.56
2019-01-06T09:31:31.195Z,4.54
2019-01-06T09:32:31.057Z,4.55
2019-01-06T09:33:31.506Z,4.57
2019-01-06T09:34:31.047Z,4.55
2019-01-06T09:35:31.514Z,4.57
2019-01-06T09:36:31.317Z,4.55
2019-01-06T09:37:31.279Z,4.58
2019-01-06T09:38:31.245Z,4.56
2019-01-06T09:39:31.185Z,4.58
2019-01-06T09:40:31.412Z,4.58
2019-01-06T09:41:31.138Z,4.58
2019-01-06T09:42:32.854Z,4.58
2019-01-06T09:43:31.045Z,4.58
2019-01-06T09:44:31.327Z,4.59
2019-01-06T09:45:31.755Z,4.59
2019-01-06T09:46:39.445Z,4.6
2019-01-06T09:47:31.197Z,4.61
2019-01-06T09:48:31.262Z,4.63
2019-01-06T09:49:31.248Z,4.61
2019-01-06T09:50:31.210Z,4.63
2019-01-06T09:51:31.246Z,4.63
2019-01-06T09:52:31.126Z,4.64
2019-01-06T09:53:31.311Z,4.61
2019-01-06T09:54:31.212Z,4.64
2019-01-06T09:55:31.039Z,4.64
2019-01-06T09:56:31.011Z,4.64
2019-01-06T09:57:31.070Z,4.65
2019-01-06T09:58:31.237Z,4.64
2019-01-06T09:59:31.539Z,4.65
2019-01-06T10:00:31.001Z,4.65
2019-01-06T10:01:31.156Z,4.65
2019-01-06T10:02:32.486Z,4.65
2019-01-06T10:03:31.027Z,4.66
2019-01-06T10:04:35.622Z,4.67
2019-01-06T10:05:31.019Z,4.66
2019-01-06T10:06:31.431Z,4.67
2019-01-06T10:07:31.204Z,4.68
2019-01-06T10:08:31.279Z,4.68
2019-01-06T10:09:31.494Z,4.67
2019-01-06T10:10:31.209Z,4.69
2019-01-06T10:11:31.157Z,4.71
2019-01-06T10:12:31.076Z,4.71
2019-01-06T10:13:31.033Z,4.71
2019-01-06T10:14:31.254Z,4.7
2019-01-06T10:15:31.146Z,4.71
2019-01-06T10:16:30.998Z,4.71
2019-01-06T10:17:31.434Z,4.71
2019-01-06T10:18:31.353Z,4.71
2019-01-06T10:19:30.972Z,4.71
2019-01-06T10:20:31.125Z,4.72
2019-01-06T10:21:31.158Z,4.74
2019-01-06T10:22:31.240Z,4.72
2019-01-06T10:23:32.013Z,4.74
2019-01-06T10:24:31.360Z,4.72
2019-01-06T10:25:31.676Z,4.74
2019-01-06T10:26:31.252Z,4.75
2019-01-06T10:27:31.826Z,4.72
2019-01-06T10:28:31.184Z,4.75
2019-01-06T10:29:31.140Z,4.72
2019-01-06T10:30:31.334Z,4.75
2019-01-06T10:31:31.471Z,4.75
2019-01-06T10:32:31.024Z,4.75
2019-01-06T10:33:31.092Z,4.73
2019-01-06T10:34:31.104Z,4.74
2019-01-06T10:35:32.229Z,4.76
2019-01-06T10:36:31.278Z,4.77
2019-01-06T10:37:30.960Z,4.77
2019-01-06T10:38:31.493Z,4.78
2019-01-06T10:39:31.306Z,4.78
2019-01-06T10:40:31.200Z,4.78
2019-01-06T10:41:31.790Z,4.79
2019-01-06T10:42:30.933Z,4.79
2019-01-06T10:43:31.177Z,4.79
2019-01-06T10:44:31.351Z,4.82
2019-01-06T10:45:31.130Z,4.82
2019-01-06T10:46:31.310Z,4.82
2019-01-06T10:47:30.899Z,4.83
2019-01-06T10:48:31.240Z,4.83
2019-01-06T10:49:31.018Z,4.83
2019-01-06T10:50:31.116Z,4.84
2019-01-06T10:51:31.120Z,4.85
2019-01-06T10:52:30.959Z,4.84
2019-01-06T10:53:31.391Z,4.84
2019-01-06T10:54:31.092Z,4.84
2019-01-06T10:55:31.097Z,4.84
2019-01-06T10:56:31.310Z,4.84
2019-01-06T10:57:31.050Z,4.85
2019-01-06T10:58:31.352Z,4.87
2019-01-06T10:59:31.046Z,4.88
2019-01-06T11:00:31.126Z,4.89
2019-01-06T11:01:34.746Z,4.89
2019-01-06T11:02:34.653Z,4.89
2019-01-06T11:03:35.790Z,4.89
2019-01-06T11:04:33.449Z,4.89
2019-01-06T11:05:41.500Z,4.9
2019-01-06T11:06:39.097Z,4.91
2019-01-06T11:07:32.371Z,4.9
2019-01-06T11:08:33.262Z,4.91
2019-01-06T11:09:33.152Z,4.9
2019-01-06T11:10:39.333Z,4.91
2019-01-06T11:11:35.806Z,4.91
2019-01-06T11:12:34.112Z,4.91
2019-01-06T11:13:42.879Z,4.91
2019-01-06T11:14:50.435Z,4.94
2019-01-06T11:18:39.805Z,4.95
2019-01-06T11:19:49.744Z,4.96
2019-01-06T11:20:42.763Z,4.96
2019-01-06T11:21:53.310Z,4.95
2019-01-06T11:22:53.643Z,4.95
2019-01-06T11:23:37.333Z,4.96
2019-01-06T11:24:38.591Z,4.96
2019-01-06T11:25:45.399Z,4.96
2019-01-06T11:26:52.839Z,4.96
2019-01-06T11:28:48.918Z,4.96
2019-01-06T11:30:51.197Z,4.96
2019-01-06T11:31:46.631Z,4.96
2019-01-06T11:33:37.200Z,4.97
2019-01-06T11:37:56.091Z,4.97
2019-01-06T11:38:40.808Z,5
2019-01-06T11:39:52.609Z,5
2019-01-06T11:40:48.366Z,4.98
2019-01-06T11:41:40.225Z,5.01
2019-01-06T11:42:37.683Z,5.01
2019-01-06T11:43:37.459Z,5
2019-01-06T11:44:36.684Z,5.02
2019-01-06T11:46:48.987Z,5.01
2019-01-06T11:48:02.591Z,5.01
2019-01-06T11:48:47.013Z,5.01
2019-01-06T11:49:51.281Z,4.99
2019-01-06T11:50:46.982Z,5.01
2019-01-06T11:51:56.018Z,5
2019-01-06T11:53:03.381Z,5.02
2019-01-06T11:54:02.728Z,5.03
2019-01-06T11:55:54.111Z,5.02
2019-01-06T11:56:50.804Z,5.03
2019-01-06T11:58:58.462Z,5.04
2019-01-06T12:00:15.733Z,5.03
2019-01-06T12:01:02.211Z,5.03
2019-01-06T12:01:59.546Z,5.04
2019-01-06T12:03:00.367Z,5.03
2019-01-06T12:05:03.562Z,5.04
2019-01-06T12:07:03.998Z,5.04
2019-01-06T12:08:58.689Z,5.04
2019-01-06T12:09:58.526Z,5.04
2019-01-06T12:10:57.968Z,5.05
2019-01-06T12:11:58.042Z,5.07
2019-01-06T12:12:57.969Z,5.04
2019-01-06T12:13:58.831Z,5.06
2019-01-06T12:14:57.568Z,5.04
2019-01-06T12:15:57.662Z,5.03
2019-01-06T12:16:57.602Z,5.07
2019-01-06T12:17:57.777Z,5.04
2019-01-06T12:18:57.653Z,5.06
2019-01-06T12:19:57.586Z,5.05
2019-01-06T12:20:57.660Z,5.07
2019-01-06T12:21:57.776Z,5.07
2019-01-06T12:22:57.509Z,5.06
2019-01-06T12:23:57.588Z,5.08
2019-01-06T12:24:57.756Z,5.07
2019-01-06T12:25:57.839Z,5.07
2019-01-06T12:26:57.875Z,5.08
2019-01-06T12:27:57.935Z,5.08
2019-01-06T12:28:57.602Z,5.09
2019-01-06T12:29:57.656Z,5.09
2019-01-06T12:30:57.635Z,5.09
2019-01-06T12:31:57.944Z,5.11
2019-01-06T12:32:58.277Z,5.12
2019-01-06T12:33:58.402Z,5.13
2019-01-06T12:34:57.757Z,5.13
2019-01-06T12:35:57.901Z,5.14
2019-01-06T12:36:58.063Z,5.13
2019-01-06T12:38:57.618Z,5.14
2019-01-06T12:39:57.590Z,5.15
2019-01-06T12:40:57.590Z,5.15
2019-01-06T12:41:57.626Z,5.15
2019-01-06T12:42:57.546Z,5.15
2019-01-06T12:43:57.708Z,5.16
2019-01-06T12:44:57.696Z,5.17
2019-01-06T12:45:57.547Z,5.19
2019-01-06T12:46:57.581Z,5.18
2019-01-06T12:47:58.275Z,5.18
2019-01-06T12:48:57.879Z,5.17
2019-01-06T12:49:57.532Z,5.19
2019-01-06T12:50:57.595Z,5.2
2019-01-06T12:51:57.609Z,5.2
2019-01-06T12:52:57.583Z,5.21
2019-01-06T12:53:57.520Z,5.17
2019-01-06T12:54:57.687Z,5.21
2019-01-06T12:55:57.897Z,5.21
2019-01-06T12:56:57.541Z,5.21
2019-01-06T12:57:57.569Z,5.2
2019-01-06T12:58:57.480Z,5.2
2019-01-06T12:59:57.591Z,5.2
2019-01-06T13:00:57.971Z,5.21
2019-01-06T13:01:57.555Z,5.21
2019-01-06T13:02:58.325Z,5.21
2019-01-06T13:03:57.813Z,5.2
2019-01-06T13:04:57.655Z,5.2
2019-01-06T13:05:57.478Z,5.21
2019-01-06T13:06:57.839Z,5.21
2019-01-06T13:07:58.213Z,5.21
2019-01-06T13:08:57.752Z,5.2
2019-01-06T13:09:57.845Z,5.22
2019-01-06T13:10:57.603Z,5.21
2019-01-06T13:11:57.723Z,5.21
2019-01-06T13:12:57.625Z,5.18
2019-01-06T13:13:57.497Z,5.21
2019-01-06T13:14:57.520Z,5.21
2019-01-06T13:15:57.636Z,5.21
2019-01-06T13:16:57.512Z,5.21
2019-01-06T13:17:57.582Z,5.2
2019-01-06T13:18:57.567Z,5.21
2019-01-06T13:19:57.587Z,5.21
2019-01-06T13:20:57.511Z,5.22
2019-01-06T13:21:57.561Z,5.2
2019-01-06T13:22:57.545Z,5.21
2019-01-06T13:23:57.570Z,5.21
2019-01-06T13:24:57.525Z,5.21
2019-01-06T13:25:57.496Z,5.2
2019-01-06T13:26:57.472Z,5.21
2019-01-06T13:27:57.509Z,5.22
2019-01-06T13:28:57.450Z,5.23
2019-01-06T13:29:57.485Z,5.21
2019-01-06T13:30:57.653Z,5.22
2019-01-06T13:31:57.415Z,5.23
2019-01-06T13:32:57.535Z,5.22
2019-01-06T13:33:57.597Z,5.22
2019-01-06T13:34:58.570Z,5.23
2019-01-06T13:35:59.719Z,5.23
2019-01-06T13:36:57.736Z,5.22
2019-01-06T13:37:57.877Z,5.24